sensor_id;sensor_type;location;lat;lon;timestamp;P1;durP1;ratioP1;P2;durP2;ratioP2
10882;SDS011;5494;51.796;10.952;2023-08-07T00:01:20;6.13;;;5.50;;
10882;SDS011;5494;51.796;10.952;2023-08-07T00:03:50;8.60;;;5.77;;
10882;SDS011;5494;51.796;10.952;2023-08-07T00:06:18;7.40;;;5.53;;
10882;SDS011;5494;51.796;10.952;2023-08-07T00:08:46;6.47;;;5.27;;
10882;SDS011;5494;51.796;10.952;2023-08-07T00:11:14;5.80;;;5.20;;
10882;SDS011;5494;51.796;10.952;2023-08-07T00:13:42;8.20;;;5.37;;
10882;SDS011;5494;51.796;10.952;2023-08-07T00:16:10;8.17;;;5.83;;
10882;SDS011;5494;51.796;10.952;2023-08-07T00:18:38;6.93;;;4.77;;
10882;SDS011;5494;51.796;10.952;2023-08-07T00:21:08;7.70;;;5.40;;
10882;SDS011;5494;51.796;10.952;2023-08-07T00:23:36;6.83;;;5.27;;
10882;SDS011;5494;51.796;10.952;2023-08-07T00:26:04;6.80;;;5.40;;
10882;SDS011;5494;51.796;10.952;2023-08-07T00:28:32;6.57;;;5.80;;
10882;SDS011;5494;51.796;10.952;2023-08-07T00:31:00;7.43;;;5.13;;
10882;SDS011;5494;51.796;10.952;2023-08-07T00:33:28;6.27;;;5.13;;
10882;SDS011;5494;51.796;10.952;2023-08-07T00:35:56;7.67;;;5.63;;
10882;SDS011;5494;51.796;10.952;2023-08-07T00:38:26;9.13;;;5.90;;
10882;SDS011;5494;51.796;10.952;2023-08-07T00:40:54;6.70;;;6.00;;
10882;SDS011;5494;51.796;10.952;2023-08-07T00:43:22;8.90;;;6.67;;
10882;SDS011;5494;51.796;10.952;2023-08-07T00:45:50;8.27;;;6.60;;
10882;SDS011;5494;51.796;10.952;2023-08-07T00:48:18;8.77;;;6.30;;
10882;SDS011;5494;51.796;10.952;2023-08-07T00:50:47;8.87;;;6.77;;
10882;SDS011;5494;51.796;10.952;2023-08-07T00:53:17;7.43;;;6.63;;
10882;SDS011;5494;51.796;10.952;2023-08-07T00:55:47;9.30;;;7.13;;
10882;SDS011;5494;51.796;10.952;2023-08-07T00:58:16;9.00;;;6.63;;
10882;SDS011;5494;51.796;10.952;2023-08-07T01:00:45;9.20;;;6.60;;
10882;SDS011;5494;51.796;10.952;2023-08-07T01:03:13;8.70;;;6.67;;
10882;SDS011;5494;51.796;10.952;2023-08-07T01:05:42;11.77;;;7.13;;
10882;SDS011;5494;51.796;10.952;2023-08-07T01:08:10;9.00;;;6.60;;
10882;SDS011;5494;51.796;10.952;2023-08-07T01:10:42;8.77;;;6.73;;
10882;SDS011;5494;51.796;10.952;2023-08-07T01:13:38;8.03;;;6.37;;
10882;SDS011;5494;51.796;10.952;2023-08-07T01:16:18;6.70;;;5.87;;
10882;SDS011;5494;51.796;10.952;2023-08-07T01:18:52;6.93;;;5.40;;
10882;SDS011;5494;51.796;10.952;2023-08-07T01:21:23;8.90;;;6.43;;
10882;SDS011;5494;51.796;10.952;2023-08-07T01:23:53;9.03;;;6.43;;
10882;SDS011;5494;51.796;10.952;2023-08-07T01:26:21;10.47;;;7.30;;
10882;SDS011;5494;51.796;10.952;2023-08-07T01:28:50;9.77;;;7.40;;
10882;SDS011;5494;51.796;10.952;2023-08-07T01:31:31;9.00;;;7.10;;
10882;SDS011;5494;51.796;10.952;2023-08-07T01:34:05;8.07;;;7.20;;
10882;SDS011;5494;51.796;10.952;2023-08-07T01:36:38;7.70;;;7.00;;
10882;SDS011;5494;51.796;10.952;2023-08-07T01:39:09;9.37;;;7.10;;
10882;SDS011;5494;51.796;10.952;2023-08-07T01:41:40;8.87;;;7.83;;
10882;SDS011;5494;51.796;10.952;2023-08-07T01:44:08;8.43;;;7.63;;
10882;SDS011;5494;51.796;10.952;2023-08-07T01:46:37;10.27;;;7.13;;
10882;SDS011;5494;51.796;10.952;2023-08-07T01:49:05;8.67;;;7.73;;
10882;SDS011;5494;51.796;10.952;2023-08-07T01:51:33;8.00;;;7.13;;
10882;SDS011;5494;51.796;10.952;2023-08-07T01:54:01;7.77;;;6.87;;
10882;SDS011;5494;51.796;10.952;2023-08-07T01:56:31;8.00;;;7.00;;
10882;SDS011;5494;51.796;10.952;2023-08-07T01:58:59;9.33;;;7.13;;
10882;SDS011;5494;51.796;10.952;2023-08-07T02:01:27;7.63;;;6.83;;
10882;SDS011;5494;51.796;10.952;2023-08-07T02:03:55;11.63;;;7.30;;
10882;SDS011;5494;51.796;10.952;2023-08-07T02:06:24;8.97;;;7.07;;
10882;SDS011;5494;51.796;10.952;2023-08-07T02:08:52;13.00;;;6.97;;
10882;SDS011;5494;51.796;10.952;2023-08-07T02:11:21;12.27;;;7.07;;
10882;SDS011;5494;51.796;10.952;2023-08-07T02:13:50;7.87;;;6.57;;
10882;SDS011;5494;51.796;10.952;2023-08-07T02:16:18;7.53;;;6.30;;
10882;SDS011;5494;51.796;10.952;2023-08-07T02:18:46;6.60;;;5.83;;
10882;SDS011;5494;51.796;10.952;2023-08-07T02:21:14;9.10;;;7.00;;
10882;SDS011;5494;51.796;10.952;2023-08-07T02:23:42;7.67;;;5.67;;
10882;SDS011;5494;51.796;10.952;2023-08-07T02:26:10;7.03;;;5.20;;
10882;SDS011;5494;51.796;10.952;2023-08-07T02:28:38;5.87;;;4.67;;
10882;SDS011;5494;51.796;10.952;2023-08-07T02:31:08;6.17;;;4.77;;
10882;SDS011;5494;51.796;10.952;2023-08-07T02:33:36;4.90;;;4.40;;
10882;SDS011;5494;51.796;10.952;2023-08-07T02:36:04;5.50;;;4.83;;
10882;SDS011;5494;51.796;10.952;2023-08-07T02:38:32;5.97;;;4.33;;
10882;SDS011;5494;51.796;10.952;2023-08-07T02:41:01;4.83;;;4.33;;
10882;SDS011;5494;51.796;10.952;2023-08-07T02:43:29;6.50;;;4.70;;
10882;SDS011;5494;51.796;10.952;2023-08-07T02:45:59;4.67;;;3.90;;
10882;SDS011;5494;51.796;10.952;2023-08-07T02:48:28;4.10;;;3.70;;
10882;SDS011;5494;51.796;10.952;2023-08-07T02:50:57;8.80;;;4.57;;
10882;SDS011;5494;51.796;10.952;2023-08-07T02:53:25;5.53;;;3.37;;
10882;SDS011;5494;51.796;10.952;2023-08-07T02:55:53;3.63;;;3.30;;
10882;SDS011;5494;51.796;10.952;2023-08-07T02:58:21;3.67;;;3.37;;
10882;SDS011;5494;51.796;10.952;2023-08-07T03:00:49;4.80;;;2.93;;
10882;SDS011;5494;51.796;10.952;2023-08-07T03:03:17;4.57;;;2.90;;
10882;SDS011;5494;51.796;10.952;2023-08-07T03:05:50;3.43;;;3.03;;
10882;SDS011;5494;51.796;10.952;2023-08-07T03:08:19;3.73;;;3.23;;
10882;SDS011;5494;51.796;10.952;2023-08-07T03:10:51;5.07;;;3.07;;
10882;SDS011;5494;51.796;10.952;2023-08-07T03:13:19;4.27;;;2.97;;
10882;SDS011;5494;51.796;10.952;2023-08-07T03:15:48;4.37;;;3.13;;
10882;SDS011;5494;51.796;10.952;2023-08-07T03:18:16;4.03;;;3.10;;
10882;SDS011;5494;51.796;10.952;2023-08-07T03:20:45;3.40;;;3.00;;
10882;SDS011;5494;51.796;10.952;2023-08-07T03:23:15;4.10;;;3.20;;
10882;SDS011;5494;51.796;10.952;2023-08-07T03:25:44;4.10;;;2.77;;
10882;SDS011;5494;51.796;10.952;2023-08-07T03:28:12;3.20;;;2.87;;
10882;SDS011;5494;51.796;10.952;2023-08-07T03:30:40;5.27;;;2.57;;
10882;SDS011;5494;51.796;10.952;2023-08-07T03:33:08;4.10;;;2.57;;
10882;SDS011;5494;51.796;10.952;2023-08-07T03:35:38;3.77;;;2.70;;
10882;SDS011;5494;51.796;10.952;2023-08-07T03:38:08;3.03;;;2.60;;
10882;SDS011;5494;51.796;10.952;2023-08-07T03:40:37;2.73;;;2.53;;
10882;SDS011;5494;51.796;10.952;2023-08-07T03:43:07;2.87;;;2.57;;
10882;SDS011;5494;51.796;10.952;2023-08-07T03:45:35;3.00;;;2.60;;
10882;SDS011;5494;51.796;10.952;2023-08-07T03:48:04;3.73;;;2.70;;
10882;SDS011;5494;51.796;10.952;2023-08-07T03:50:33;3.07;;;2.37;;
10882;SDS011;5494;51.796;10.952;2023-08-07T03:53:03;4.73;;;2.83;;
10882;SDS011;5494;51.796;10.952;2023-08-07T03:55:38;2.77;;;2.57;;
10882;SDS011;5494;51.796;10.952;2023-08-07T03:58:08;3.50;;;2.63;;
10882;SDS011;5494;51.796;10.952;2023-08-07T04:00:36;3.73;;;2.70;;
10882;SDS011;5494;51.796;10.952;2023-08-07T04:03:04;2.83;;;2.33;;
10882;SDS011;5494;51.796;10.952;2023-08-07T04:05:33;2.87;;;2.67;;
10882;SDS011;5494;51.796;10.952;2023-08-07T04:08:01;3.03;;;2.33;;
10882;SDS011;5494;51.796;10.952;2023-08-07T04:10:29;4.23;;;2.40;;
10882;SDS011;5494;51.796;10.952;2023-08-07T04:12:59;2.70;;;2.20;;
10882;SDS011;5494;51.796;10.952;2023-08-07T04:15:27;4.03;;;2.47;;
10882;SDS011;5494;51.796;10.952;2023-08-07T04:17:55;2.67;;;2.03;;
10882;SDS011;5494;51.796;10.952;2023-08-07T04:20:24;2.47;;;2.07;;
10882;SDS011;5494;51.796;10.952;2023-08-07T04:22:52;3.07;;;2.17;;
10882;SDS011;5494;51.796;10.952;2023-08-07T04:25:21;2.77;;;2.17;;
10882;SDS011;5494;51.796;10.952;2023-08-07T04:27:49;3.97;;;2.30;;
10882;SDS011;5494;51.796;10.952;2023-08-07T04:30:19;3.30;;;2.40;;
10882;SDS011;5494;51.796;10.952;2023-08-07T04:32:47;2.93;;;2.63;;
10882;SDS011;5494;51.796;10.952;2023-08-07T04:35:15;2.43;;;2.23;;
10882;SDS011;5494;51.796;10.952;2023-08-07T04:37:43;3.60;;;2.30;;
10882;SDS011;5494;51.796;10.952;2023-08-07T04:40:12;3.03;;;2.20;;
10882;SDS011;5494;51.796;10.952;2023-08-07T04:42:40;4.13;;;2.33;;
10882;SDS011;5494;51.796;10.952;2023-08-07T04:45:08;2.80;;;2.07;;
10882;SDS011;5494;51.796;10.952;2023-08-07T04:47:38;3.27;;;1.97;;
10882;SDS011;5494;51.796;10.952;2023-08-07T04:50:07;2.53;;;2.10;;
10882;SDS011;5494;51.796;10.952;2023-08-07T04:52:36;2.43;;;2.07;;
10882;SDS011;5494;51.796;10.952;2023-08-07T04:55:05;2.63;;;1.97;;
10882;SDS011;5494;51.796;10.952;2023-08-07T04:57:33;2.07;;;1.77;;
10882;SDS011;5494;51.796;10.952;2023-08-07T05:00:01;3.60;;;2.17;;
10882;SDS011;5494;51.796;10.952;2023-08-07T05:02:31;2.20;;;1.90;;
10882;SDS011;5494;51.796;10.952;2023-08-07T05:05:00;1.90;;;1.77;;
10882;SDS011;5494;51.796;10.952;2023-08-07T05:07:29;4.87;;;1.90;;
10882;SDS011;5494;51.796;10.952;2023-08-07T05:09:57;3.57;;;2.20;;
10882;SDS011;5494;51.796;10.952;2023-08-07T05:12:26;3.13;;;1.93;;
10882;SDS011;5494;51.796;10.952;2023-08-07T05:14:54;3.97;;;2.23;;
10882;SDS011;5494;51.796;10.952;2023-08-07T05:17:22;2.77;;;1.63;;
10882;SDS011;5494;51.796;10.952;2023-08-07T05:19:50;2.10;;;1.80;;
10882;SDS011;5494;51.796;10.952;2023-08-07T05:22:19;2.30;;;1.70;;
10882;SDS011;5494;51.796;10.952;2023-08-07T05:24:48;2.20;;;1.90;;
10882;SDS011;5494;51.796;10.952;2023-08-07T05:27:16;5.37;;;2.30;;
10882;SDS011;5494;51.796;10.952;2023-08-07T05:29:44;1.83;;;1.70;;
10882;SDS011;5494;51.796;10.952;2023-08-07T05:32:13;4.47;;;1.73;;
10882;SDS011;5494;51.796;10.952;2023-08-07T05:34:42;2.57;;;1.87;;
10882;SDS011;5494;51.796;10.952;2023-08-07T05:37:10;2.87;;;2.00;;
10882;SDS011;5494;51.796;10.952;2023-08-07T05:39:40;2.50;;;1.80;;
10882;SDS011;5494;51.796;10.952;2023-08-07T05:42:08;2.13;;;1.77;;
10882;SDS011;5494;51.796;10.952;2023-08-07T05:44:37;2.40;;;1.87;;
10882;SDS011;5494;51.796;10.952;2023-08-07T05:47:06;5.27;;;1.90;;
10882;SDS011;5494;51.796;10.952;2023-08-07T05:49:34;3.43;;;1.67;;
10882;SDS011;5494;51.796;10.952;2023-08-07T05:52:03;2.63;;;1.80;;
10882;SDS011;5494;51.796;10.952;2023-08-07T05:54:32;3.17;;;1.80;;
10882;SDS011;5494;51.796;10.952;2023-08-07T05:57:01;3.73;;;1.70;;
10882;SDS011;5494;51.796;10.952;2023-08-07T05:59:30;3.47;;;1.77;;
10882;SDS011;5494;51.796;10.952;2023-08-07T06:02:00;2.17;;;1.60;;
10882;SDS011;5494;51.796;10.952;2023-08-07T06:04:30;1.50;;;1.40;;
10882;SDS011;5494;51.796;10.952;2023-08-07T06:06:58;2.37;;;1.80;;
10882;SDS011;5494;51.796;10.952;2023-08-07T06:09:27;3.40;;;1.73;;
10882;SDS011;5494;51.796;10.952;2023-08-07T06:11:55;3.00;;;1.50;;
10882;SDS011;5494;51.796;10.952;2023-08-07T06:14:25;4.57;;;1.70;;
10882;SDS011;5494;51.796;10.952;2023-08-07T06:16:53;2.90;;;1.60;;
10882;SDS011;5494;51.796;10.952;2023-08-07T06:19:24;3.00;;;1.97;;
10882;SDS011;5494;51.796;10.952;2023-08-07T06:21:58;2.57;;;1.60;;
10882;SDS011;5494;51.796;10.952;2023-08-07T06:24:27;2.60;;;1.60;;
10882;SDS011;5494;51.796;10.952;2023-08-07T06:26:55;2.93;;;2.03;;
10882;SDS011;5494;51.796;10.952;2023-08-07T06:29:24;1.90;;;1.60;;
10882;SDS011;5494;51.796;10.952;2023-08-07T06:31:52;2.00;;;1.50;;
10882;SDS011;5494;51.796;10.952;2023-08-07T06:34:21;2.10;;;1.40;;
10882;SDS011;5494;51.796;10.952;2023-08-07T06:36:49;3.07;;;1.40;;
10882;SDS011;5494;51.796;10.952;2023-08-07T06:39:17;3.63;;;1.87;;
10882;SDS011;5494;51.796;10.952;2023-08-07T06:41:45;2.77;;;1.37;;
10882;SDS011;5494;51.796;10.952;2023-08-07T06:44:16;3.67;;;1.27;;
10882;SDS011;5494;51.796;10.952;2023-08-07T06:46:46;3.27;;;1.47;;
10882;SDS011;5494;51.796;10.952;2023-08-07T06:49:14;2.83;;;1.30;;
10882;SDS011;5494;51.796;10.952;2023-08-07T06:51:42;1.80;;;1.37;;
10882;SDS011;5494;51.796;10.952;2023-08-07T06:54:10;2.70;;;2.37;;
10882;SDS011;5494;51.796;10.952;2023-08-07T06:56:38;2.33;;;2.13;;
10882;SDS011;5494;51.796;10.952;2023-08-07T06:59:08;2.03;;;1.50;;
10882;SDS011;5494;51.796;10.952;2023-08-07T07:01:36;1.77;;;1.53;;
10882;SDS011;5494;51.796;10.952;2023-08-07T07:04:06;2.20;;;1.70;;
10882;SDS011;5494;51.796;10.952;2023-08-07T07:06:34;2.57;;;1.70;;
10882;SDS011;5494;51.796;10.952;2023-08-07T07:09:04;2.03;;;1.60;;
10882;SDS011;5494;51.796;10.952;2023-08-07T07:11:32;1.60;;;1.50;;
10882;SDS011;5494;51.796;10.952;2023-08-07T07:14:01;2.07;;;1.30;;
10882;SDS011;5494;51.796;10.952;2023-08-07T07:16:29;2.40;;;1.70;;
10882;SDS011;5494;51.796;10.952;2023-08-07T07:18:57;2.00;;;1.70;;
10882;SDS011;5494;51.796;10.952;2023-08-07T07:21:27;2.00;;;1.50;;
10882;SDS011;5494;51.796;10.952;2023-08-07T07:23:55;2.87;;;1.60;;
10882;SDS011;5494;51.796;10.952;2023-08-07T07:26:23;1.60;;;1.50;;
10882;SDS011;5494;51.796;10.952;2023-08-07T07:28:52;2.80;;;1.80;;
10882;SDS011;5494;51.796;10.952;2023-08-07T07:31:20;2.70;;;1.40;;
10882;SDS011;5494;51.796;10.952;2023-08-07T07:33:48;2.20;;;1.80;;
10882;SDS011;5494;51.796;10.952;2023-08-07T07:36:17;2.57;;;1.87;;
10882;SDS011;5494;51.796;10.952;2023-08-07T07:38:47;3.00;;;1.90;;
10882;SDS011;5494;51.796;10.952;2023-08-07T07:41:16;3.67;;;1.83;;
10882;SDS011;5494;51.796;10.952;2023-08-07T07:43:45;1.70;;;1.57;;
10882;SDS011;5494;51.796;10.952;2023-08-07T07:46:14;2.40;;;1.93;;
10882;SDS011;5494;51.796;10.952;2023-08-07T07:48:42;3.00;;;1.80;;
10882;SDS011;5494;51.796;10.952;2023-08-07T07:51:10;2.57;;;1.77;;
10882;SDS011;5494;51.796;10.952;2023-08-07T07:53:39;1.80;;;1.63;;
10882;SDS011;5494;51.796;10.952;2023-08-07T07:56:09;2.70;;;1.80;;
10882;SDS011;5494;51.796;10.952;2023-08-07T07:58:37;2.83;;;1.60;;
10882;SDS011;5494;51.796;10.952;2023-08-07T08:01:07;2.73;;;1.80;;
10882;SDS011;5494;51.796;10.952;2023-08-07T08:03:35;2.37;;;1.70;;
10882;SDS011;5494;51.796;10.952;2023-08-07T08:06:03;2.43;;;1.90;;
10882;SDS011;5494;51.796;10.952;2023-08-07T08:08:32;3.03;;;2.03;;
10882;SDS011;5494;51.796;10.952;2023-08-07T08:11:00;3.53;;;1.83;;
10882;SDS011;5494;51.796;10.952;2023-08-07T08:13:30;3.57;;;2.20;;
10882;SDS011;5494;51.796;10.952;2023-08-07T08:16:00;3.53;;;1.97;;
10882;SDS011;5494;51.796;10.952;2023-08-07T08:18:28;4.00;;;2.00;;
10882;SDS011;5494;51.796;10.952;2023-08-07T08:20:56;3.77;;;2.27;;
10882;SDS011;5494;51.796;10.952;2023-08-07T08:23:24;2.40;;;1.70;;
10882;SDS011;5494;51.796;10.952;2023-08-07T08:25:52;2.83;;;1.60;;
10882;SDS011;5494;51.796;10.952;2023-08-07T08:28:20;3.20;;;1.73;;
10882;SDS011;5494;51.796;10.952;2023-08-07T08:30:52;2.27;;;1.90;;
10882;SDS011;5494;51.796;10.952;2023-08-07T08:33:20;2.53;;;2.10;;
10882;SDS011;5494;51.796;10.952;2023-08-07T08:35:48;2.43;;;1.70;;
10882;SDS011;5494;51.796;10.952;2023-08-07T08:38:16;2.40;;;1.70;;
10882;SDS011;5494;51.796;10.952;2023-08-07T08:40:46;4.87;;;1.83;;
10882;SDS011;5494;51.796;10.952;2023-08-07T08:43:18;5.53;;;2.27;;
10882;SDS011;5494;51.796;10.952;2023-08-07T08:45:48;2.53;;;1.80;;
10882;SDS011;5494;51.796;10.952;2023-08-07T08:48:19;3.20;;;1.77;;
10882;SDS011;5494;51.796;10.952;2023-08-07T08:50:50;2.20;;;1.53;;
10882;SDS011;5494;51.796;10.952;2023-08-07T08:53:19;2.80;;;2.30;;
10882;SDS011;5494;51.796;10.952;2023-08-07T08:55:49;2.80;;;1.50;;
10882;SDS011;5494;51.796;10.952;2023-08-07T08:58:18;1.83;;;1.53;;
10882;SDS011;5494;51.796;10.952;2023-08-07T09:00:47;3.73;;;1.80;;
10882;SDS011;5494;51.796;10.952;2023-08-07T09:03:18;1.50;;;1.23;;
10882;SDS011;5494;51.796;10.952;2023-08-07T09:05:47;1.63;;;1.50;;
10882;SDS011;5494;51.796;10.952;2023-08-07T09:08:20;3.53;;;1.80;;
10882;SDS011;5494;51.796;10.952;2023-08-07T09:10:54;3.70;;;1.83;;
10882;SDS011;5494;51.796;10.952;2023-08-07T09:13:23;2.47;;;1.53;;
10882;SDS011;5494;51.796;10.952;2023-08-07T09:15:55;3.57;;;1.80;;
10882;SDS011;5494;51.796;10.952;2023-08-07T09:18:29;1.90;;;1.73;;
10882;SDS011;5494;51.796;10.952;2023-08-07T09:20:57;1.67;;;1.43;;
10882;SDS011;5494;51.796;10.952;2023-08-07T09:23:27;2.90;;;1.70;;
10882;SDS011;5494;51.796;10.952;2023-08-07T09:25:58;4.47;;;1.67;;
10882;SDS011;5494;51.796;10.952;2023-08-07T09:28:28;2.03;;;1.40;;
10882;SDS011;5494;51.796;10.952;2023-08-07T09:30:57;2.23;;;1.70;;
10882;SDS011;5494;51.796;10.952;2023-08-07T09:33:29;3.53;;;1.43;;
10882;SDS011;5494;51.796;10.952;2023-08-07T09:35:57;1.80;;;1.20;;
10882;SDS011;5494;51.796;10.952;2023-08-07T09:38:28;1.50;;;1.40;;
10882;SDS011;5494;51.796;10.952;2023-08-07T09:40:57;1.77;;;1.13;;
10882;SDS011;5494;51.796;10.952;2023-08-07T09:43:26;2.33;;;1.20;;
10882;SDS011;5494;51.796;10.952;2023-08-07T09:46:01;1.90;;;1.30;;
10882;SDS011;5494;51.796;10.952;2023-08-07T09:48:32;1.47;;;1.10;;
10882;SDS011;5494;51.796;10.952;2023-08-07T09:51:07;2.03;;;1.20;;
10882;SDS011;5494;51.796;10.952;2023-08-07T09:53:35;1.10;;;1.00;;
10882;SDS011;5494;51.796;10.952;2023-08-07T09:56:04;1.90;;;1.13;;
10882;SDS011;5494;51.796;10.952;2023-08-07T09:58:33;1.27;;;0.97;;
10882;SDS011;5494;51.796;10.952;2023-08-07T10:01:04;1.10;;;0.93;;
10882;SDS011;5494;51.796;10.952;2023-08-07T10:03:35;2.33;;;1.40;;
10882;SDS011;5494;51.796;10.952;2023-08-07T10:06:04;1.17;;;0.77;;
10882;SDS011;5494;51.796;10.952;2023-08-07T10:08:33;1.10;;;1.00;;
10882;SDS011;5494;51.796;10.952;2023-08-07T10:11:04;2.00;;;0.83;;
10882;SDS011;5494;51.796;10.952;2023-08-07T10:13:33;2.40;;;0.87;;
10882;SDS011;5494;51.796;10.952;2023-08-07T10:16:05;2.00;;;0.97;;
10882;SDS011;5494;51.796;10.952;2023-08-07T10:18:36;1.60;;;0.93;;
10882;SDS011;5494;51.796;10.952;2023-08-07T10:21:05;1.47;;;0.80;;
10882;SDS011;5494;51.796;10.952;2023-08-07T10:23:34;0.80;;;0.80;;
10882;SDS011;5494;51.796;10.952;2023-08-07T10:26:04;1.93;;;1.03;;
10882;SDS011;5494;51.796;10.952;2023-08-07T10:28:36;3.43;;;1.30;;
10882;SDS011;5494;51.796;10.952;2023-08-07T10:31:07;0.90;;;0.63;;
10882;SDS011;5494;51.796;10.952;2023-08-07T10:33:40;1.23;;;0.93;;
10882;SDS011;5494;51.796;10.952;2023-08-07T10:36:09;1.10;;;0.80;;
10882;SDS011;5494;51.796;10.952;2023-08-07T10:38:38;1.13;;;0.70;;
10882;SDS011;5494;51.796;10.952;2023-08-07T10:41:08;1.97;;;1.10;;
10882;SDS011;5494;51.796;10.952;2023-08-07T10:43:39;1.43;;;0.70;;
10882;SDS011;5494;51.796;10.952;2023-08-07T10:46:10;0.83;;;0.73;;
10882;SDS011;5494;51.796;10.952;2023-08-07T10:48:45;2.77;;;1.10;;
10882;SDS011;5494;51.796;10.952;2023-08-07T10:51:20;2.70;;;1.10;;
10882;SDS011;5494;51.796;10.952;2023-08-07T10:53:56;2.33;;;1.00;;
10882;SDS011;5494;51.796;10.952;2023-08-07T10:56:29;2.83;;;1.00;;
10882;SDS011;5494;51.796;10.952;2023-08-07T10:59:07;2.20;;;1.00;;
10882;SDS011;5494;51.796;10.952;2023-08-07T11:01:39;3.43;;;1.00;;
10882;SDS011;5494;51.796;10.952;2023-08-07T11:04:11;2.57;;;1.30;;
10882;SDS011;5494;51.796;10.952;2023-08-07T11:06:41;3.50;;;1.30;;
10882;SDS011;5494;51.796;10.952;2023-08-07T11:09:11;3.23;;;1.20;;
10882;SDS011;5494;51.796;10.952;2023-08-07T11:11:40;2.20;;;1.37;;
10882;SDS011;5494;51.796;10.952;2023-08-07T11:14:10;3.40;;;1.67;;
10882;SDS011;5494;51.796;10.952;2023-08-07T11:16:40;2.63;;;1.90;;
10882;SDS011;5494;51.796;10.952;2023-08-07T11:19:11;3.07;;;1.67;;
10882;SDS011;5494;51.796;10.952;2023-08-07T11:21:41;3.27;;;1.50;;
10882;SDS011;5494;51.796;10.952;2023-08-07T11:24:11;2.30;;;1.10;;
10882;SDS011;5494;51.796;10.952;2023-08-07T11:26:42;4.23;;;1.43;;
10882;SDS011;5494;51.796;10.952;2023-08-07T11:29:12;2.60;;;1.00;;
10882;SDS011;5494;51.796;10.952;2023-08-07T11:31:44;3.77;;;1.50;;
10882;SDS011;5494;51.796;10.952;2023-08-07T11:34:15;2.53;;;1.10;;
10882;SDS011;5494;51.796;10.952;2023-08-07T11:36:45;3.43;;;1.20;;
10882;SDS011;5494;51.796;10.952;2023-08-07T11:39:13;1.80;;;1.20;;
10882;SDS011;5494;51.796;10.952;2023-08-07T11:41:43;3.77;;;1.10;;
10882;SDS011;5494;51.796;10.952;2023-08-07T11:44:11;5.63;;;1.23;;
10882;SDS011;5494;51.796;10.952;2023-08-07T11:46:39;4.13;;;1.40;;
10882;SDS011;5494;51.796;10.952;2023-08-07T11:49:08;3.17;;;1.10;;
10882;SDS011;5494;51.796;10.952;2023-08-07T11:51:38;2.90;;;1.30;;
10882;SDS011;5494;51.796;10.952;2023-08-07T11:54:13;2.03;;;1.30;;
10882;SDS011;5494;51.796;10.952;2023-08-07T11:56:45;2.43;;;0.93;;
10882;SDS011;5494;51.796;10.952;2023-08-07T11:59:15;2.33;;;1.03;;
10882;SDS011;5494;51.796;10.952;2023-08-07T12:01:45;2.93;;;1.30;;
10882;SDS011;5494;51.796;10.952;2023-08-07T12:04:14;2.90;;;1.00;;
10882;SDS011;5494;51.796;10.952;2023-08-07T12:06:53;4.57;;;1.20;;
10882;SDS011;5494;51.796;10.952;2023-08-07T12:09:25;4.33;;;1.03;;
10882;SDS011;5494;51.796;10.952;2023-08-07T12:11:55;2.00;;;0.90;;
10882;SDS011;5494;51.796;10.952;2023-08-07T12:14:30;2.97;;;1.57;;
10882;SDS011;5494;51.796;10.952;2023-08-07T12:17:00;2.70;;;1.00;;
10882;SDS011;5494;51.796;10.952;2023-08-07T12:19:36;3.20;;;0.90;;
10882;SDS011;5494;51.796;10.952;2023-08-07T12:22:09;1.67;;;0.90;;
10882;SDS011;5494;51.796;10.952;2023-08-07T12:24:38;1.57;;;0.63;;
10882;SDS011;5494;51.796;10.952;2023-08-07T12:27:15;2.20;;;0.77;;
10882;SDS011;5494;51.796;10.952;2023-08-07T12:29:43;3.97;;;0.90;;
10882;SDS011;5494;51.796;10.952;2023-08-07T12:32:11;10.50;;;1.23;;
10882;SDS011;5494;51.796;10.952;2023-08-07T12:34:40;2.57;;;0.97;;
10882;SDS011;5494;51.796;10.952;2023-08-07T12:37:12;1.63;;;0.70;;
10882;SDS011;5494;51.796;10.952;2023-08-07T12:39:40;1.50;;;0.80;;
10882;SDS011;5494;51.796;10.952;2023-08-07T12:42:13;2.20;;;0.70;;
10882;SDS011;5494;51.796;10.952;2023-08-07T12:44:44;2.20;;;1.00;;
10882;SDS011;5494;51.796;10.952;2023-08-07T12:47:14;1.77;;;0.90;;
10882;SDS011;5494;51.796;10.952;2023-08-07T12:49:45;1.80;;;0.87;;
10882;SDS011;5494;51.796;10.952;2023-08-07T12:52:17;2.93;;;1.00;;
10882;SDS011;5494;51.796;10.952;2023-08-07T12:54:46;1.63;;;0.83;;
10882;SDS011;5494;51.796;10.952;2023-08-07T12:57:14;1.63;;;0.70;;
10882;SDS011;5494;51.796;10.952;2023-08-07T12:59:42;2.13;;;0.97;;
10882;SDS011;5494;51.796;10.952;2023-08-07T13:02:10;1.67;;;0.90;;
10882;SDS011;5494;51.796;10.952;2023-08-07T13:04:43;1.10;;;0.70;;
10882;SDS011;5494;51.796;10.952;2023-08-07T13:07:17;0.67;;;0.67;;
10882;SDS011;5494;51.796;10.952;2023-08-07T13:09:46;2.87;;;0.87;;
10882;SDS011;5494;51.796;10.952;2023-08-07T13:12:14;2.33;;;1.10;;
10882;SDS011;5494;51.796;10.952;2023-08-07T13:14:42;1.73;;;0.97;;
10882;SDS011;5494;51.796;10.952;2023-08-07T13:17:10;1.27;;;0.90;;
10882;SDS011;5494;51.796;10.952;2023-08-07T13:19:38;1.80;;;0.90;;
10882;SDS011;5494;51.796;10.952;2023-08-07T13:22:07;1.97;;;0.97;;
10882;SDS011;5494;51.796;10.952;2023-08-07T13:24:36;2.43;;;0.73;;
10882;SDS011;5494;51.796;10.952;2023-08-07T13:27:04;1.00;;;0.70;;
10882;SDS011;5494;51.796;10.952;2023-08-07T13:29:33;3.73;;;1.47;;
10882;SDS011;5494;51.796;10.952;2023-08-07T13:32:02;1.77;;;0.87;;
10882;SDS011;5494;51.796;10.952;2023-08-07T13:34:35;2.63;;;1.10;;
10882;SDS011;5494;51.796;10.952;2023-08-07T13:37:03;2.10;;;1.20;;
10882;SDS011;5494;51.796;10.952;2023-08-07T13:39:33;2.43;;;1.07;;
10882;SDS011;5494;51.796;10.952;2023-08-07T13:42:02;2.67;;;1.33;;
10882;SDS011;5494;51.796;10.952;2023-08-07T13:44:31;3.53;;;1.33;;
10882;SDS011;5494;51.796;10.952;2023-08-07T13:46:59;3.60;;;1.50;;
10882;SDS011;5494;51.796;10.952;2023-08-07T13:49:27;4.43;;;1.27;;
10882;SDS011;5494;51.796;10.952;2023-08-07T13:51:56;4.23;;;1.77;;
10882;SDS011;5494;51.796;10.952;2023-08-07T13:54:24;3.10;;;1.40;;
10882;SDS011;5494;51.796;10.952;2023-08-07T13:56:52;5.37;;;1.80;;
10882;SDS011;5494;51.796;10.952;2023-08-07T13:59:22;3.93;;;1.70;;
10882;SDS011;5494;51.796;10.952;2023-08-07T14:01:50;3.77;;;1.50;;
10882;SDS011;5494;51.796;10.952;2023-08-07T14:04:18;5.73;;;1.40;;
10882;SDS011;5494;51.796;10.952;2023-08-07T14:06:47;2.90;;;1.60;;
10882;SDS011;5494;51.796;10.952;2023-08-07T14:09:15;4.47;;;1.50;;
10882;SDS011;5494;51.796;10.952;2023-08-07T14:11:44;5.47;;;3.50;;
10882;SDS011;5494;51.796;10.952;2023-08-07T14:14:13;2.67;;;1.50;;
10882;SDS011;5494;51.796;10.952;2023-08-07T14:16:42;3.10;;;1.60;;
10882;SDS011;5494;51.796;10.952;2023-08-07T14:19:11;6.47;;;1.80;;
10882;SDS011;5494;51.796;10.952;2023-08-07T14:21:39;5.77;;;1.80;;
10882;SDS011;5494;51.796;10.952;2023-08-07T14:24:07;3.60;;;1.70;;
10882;SDS011;5494;51.796;10.952;2023-08-07T14:26:35;4.60;;;2.03;;
10882;SDS011;5494;51.796;10.952;2023-08-07T14:29:04;4.63;;;1.80;;
10882;SDS011;5494;51.796;10.952;2023-08-07T14:31:32;3.80;;;1.77;;
10882;SDS011;5494;51.796;10.952;2023-08-07T14:34:01;2.77;;;1.80;;
10882;SDS011;5494;51.796;10.952;2023-08-07T14:36:29;4.27;;;1.70;;
10882;SDS011;5494;51.796;10.952;2023-08-07T14:38:57;4.57;;;2.40;;
10882;SDS011;5494;51.796;10.952;2023-08-07T14:41:26;5.77;;;2.20;;
10882;SDS011;5494;51.796;10.952;2023-08-07T14:43:54;6.87;;;2.30;;
10882;SDS011;5494;51.796;10.952;2023-08-07T14:46:22;6.97;;;2.33;;
10882;SDS011;5494;51.796;10.952;2023-08-07T14:48:50;5.27;;;2.13;;
10882;SDS011;5494;51.796;10.952;2023-08-07T14:51:22;7.43;;;2.50;;
10882;SDS011;5494;51.796;10.952;2023-08-07T14:53:50;5.37;;;2.07;;
10882;SDS011;5494;51.796;10.952;2023-08-07T14:56:18;4.13;;;2.30;;
10882;SDS011;5494;51.796;10.952;2023-08-07T14:58:47;5.57;;;2.30;;
10882;SDS011;5494;51.796;10.952;2023-08-07T15:01:15;3.70;;;1.70;;